createdAt,value
2022-10-15T00:01:12.073Z,97942.22
2022-10-15T00:03:40.764Z,97940.50
2022-10-15T00:06:14.223Z,97940.45
2022-10-15T00:08:42.042Z,97938.28
2022-10-15T00:11:12.426Z,97937.56
2022-10-15T00:13:40.016Z,97940.00
2022-10-15T00:16:20.639Z,97933.31
2022-10-15T00:18:51.339Z,97936.31
2022-10-15T00:21:19.921Z,97932.88
2022-10-15T00:23:47.707Z,97934.84
2022-10-15T00:26:18.449Z,97938.15
2022-10-15T00:28:46.739Z,97937.16
2022-10-15T00:31:16.460Z,97931.56
2022-10-15T00:33:48.246Z,97924.38
2022-10-15T00:36:18.016Z,97927.68
2022-10-15T00:38:45.360Z,97925.34
2022-10-15T00:41:15.699Z,97917.06
2022-10-15T00:43:51.245Z,97922.52
2022-10-15T00:46:25.387Z,97920.92
2022-10-15T00:48:55.680Z,97924.23
2022-10-15T00:51:25.427Z,97916.97
2022-10-15T00:53:52.678Z,97918.39
2022-10-15T00:56:21.514Z,97915.73
2022-10-15T00:58:50.427Z,97919.03
2022-10-15T01:01:17.912Z,97916.97
2022-10-15T01:03:45.479Z,97908.42
2022-10-15T01:06:12.683Z,97912.56
2022-10-15T01:08:41.249Z,97912.13
2022-10-15T01:11:33.484Z,97908.98
2022-10-15T01:14:11.722Z,97909.58
2022-10-15T01:16:48.777Z,97908.03
2022-10-15T01:19:25.686Z,97902.98
2022-10-15T01:21:56.605Z,97911.20
2022-10-15T01:24:45.574Z,97907.50
2022-10-15T01:27:22.451Z,97903.80
2022-10-15T01:30:19.288Z,97899.00
2022-10-15T01:33:04.589Z,97906.86
2022-10-15T01:35:35.533Z,97913.36
2022-10-15T01:38:24.435Z,97910.70
2022-10-15T01:40:55.582Z,97911.50
2022-10-15T01:43:27.082Z,97914.55
2022-10-15T01:46:35.170Z,97911.36
2022-10-15T01:49:11.447Z,97911.72
2022-10-15T01:51:45.387Z,97912.82
2022-10-15T01:54:18.694Z,97916.07
2022-10-15T01:56:51.430Z,97913.66
2022-10-15T01:59:24.314Z,97913.41
2022-10-15T02:01:54.019Z,97914.52
2022-10-15T02:04:27.352Z,97910.47
2022-10-15T02:07:10.578Z,97910.75
2022-10-15T02:10:14.885Z,97909.95
2022-10-15T02:13:02.984Z,97914.52
2022-10-15T02:15:38.655Z,97906.80
2022-10-15T02:18:12.739Z,97918.00
2022-10-15T02:20:46.769Z,97908.41
2022-10-15T02:23:20.722Z,97901.51
2022-10-15T02:25:50.196Z,97905.88
2022-10-15T02:28:18.068Z,97907.32
2022-10-15T02:30:47.755Z,97905.20
2022-10-15T02:33:16.138Z,97903.94
2022-10-15T02:35:44.822Z,97895.62
2022-10-15T02:38:14.802Z,97898.44
2022-10-15T02:40:43.614Z,97897.28
2022-10-15T02:43:13.343Z,97898.07
2022-10-15T02:45:41.133Z,97908.59
2022-10-15T02:48:08.380Z,97906.69
2022-10-15T02:50:35.687Z,97910.47
2022-10-15T02:53:03.029Z,97912.09
2022-10-15T02:55:30.297Z,97905.34
2022-10-15T02:57:57.657Z,97906.78
2022-10-15T03:00:25.226Z,97912.31
2022-10-15T03:02:52.295Z,97912.43
2022-10-15T03:05:20.122Z,97909.34
2022-10-15T03:07:47.363Z,97912.16
2022-10-15T03:10:15.115Z,97912.28
2022-10-15T03:12:42.729Z,97906.72
2022-10-15T03:15:11.348Z,97909.30
2022-10-15T03:17:38.711Z,97910.48
2022-10-15T03:20:06.384Z,97917.36
2022-10-15T03:22:35.533Z,97915.84
2022-10-15T03:25:03.088Z,97915.71
2022-10-15T03:27:30.282Z,97925.27
2022-10-15T03:29:57.533Z,97925.97
2022-10-15T03:32:26.155Z,97930.09
2022-10-15T03:34:53.822Z,97927.25
2022-10-15T03:37:21.396Z,97925.00
2022-10-15T03:39:49.477Z,97926.67
2022-10-15T03:42:18.589Z,97923.45
2022-10-15T03:44:46.444Z,97921.09
2022-10-15T03:47:15.644Z,97926.56
2022-10-15T03:49:44.802Z,97923.38
2022-10-15T03:52:12.856Z,97921.30
2022-10-15T03:54:40.693Z,97922.19
2022-10-15T03:57:08.227Z,97923.81
2022-10-15T03:59:38.601Z,97924.67
2022-10-15T04:02:06.177Z,97931.14
2022-10-15T04:04:33.597Z,97929.31
2022-10-15T04:07:00.929Z,97929.61
2022-10-15T04:09:28.512Z,97928.79
2022-10-15T04:11:57.591Z,97922.35
2022-10-15T04:14:25.036Z,97926.70
2022-10-15T04:16:52.258Z,97929.41
2022-10-15T04:19:21.278Z,97927.78
2022-10-15T04:21:50.280Z,97930.23
2022-10-15T04:24:19.629Z,97933.17
2022-10-15T04:26:46.769Z,97929.41
2022-10-15T04:29:13.938Z,97932.09
2022-10-15T04:31:41.768Z,97930.20
2022-10-15T04:34:09.021Z,97926.64
2022-10-15T04:36:36.771Z,97931.76
2022-10-15T04:39:08.630Z,97934.19
2022-10-15T04:41:37.602Z,97932.83
2022-10-15T04:44:06.745Z,97930.75
2022-10-15T04:46:34.032Z,97934.48
2022-10-15T04:49:03.138Z,97932.09
2022-10-15T04:51:30.342Z,97933.70
2022-10-15T04:54:08.153Z,97938.23
2022-10-15T04:56:36.184Z,97940.41
2022-10-15T04:59:08.223Z,97944.45
2022-10-15T05:01:37.452Z,97937.64
2022-10-15T05:04:06.546Z,97939.76
2022-10-15T05:06:34.309Z,97944.30
2022-10-15T05:09:03.402Z,97930.98
2022-10-15T05:11:35.291Z,97941.92
2022-10-15T05:14:02.723Z,97937.53
2022-10-15T05:16:31.043Z,97940.64
2022-10-15T05:19:01.766Z,97938.64
2022-10-15T05:21:30.874Z,97944.20
2022-10-15T05:24:00.166Z,97945.94
2022-10-15T05:26:46.990Z,97939.12
2022-10-15T05:29:15.101Z,97947.35
2022-10-15T05:31:42.638Z,97945.66
2022-10-15T05:34:14.553Z,97948.07
2022-10-15T05:36:43.793Z,97947.72
2022-10-15T05:39:11.621Z,97956.27
2022-10-15T05:41:43.146Z,97954.56
2022-10-15T05:44:10.396Z,97956.36
2022-10-15T05:46:37.769Z,97957.00
2022-10-15T05:49:05.171Z,97952.80
2022-10-15T05:51:34.239Z,97959.68
2022-10-15T05:54:03.297Z,97959.33
2022-10-15T05:56:30.803Z,97958.84
2022-10-15T05:58:58.050Z,97958.45
2022-10-15T06:01:26.994Z,97957.77
2022-10-15T06:03:54.157Z,97967.63
2022-10-15T06:06:23.974Z,97969.84
2022-10-15T06:08:51.232Z,97969.62
2022-10-15T06:11:18.724Z,97969.14
2022-10-15T06:13:46.297Z,97969.16
2022-10-15T06:16:17.917Z,97967.30
2022-10-15T06:18:43.952Z,97980.59
2022-10-15T06:21:12.115Z,97979.30
2022-10-15T06:23:39.582Z,97987.23
2022-10-15T06:26:09.096Z,97988.91
2022-10-15T06:28:37.153Z,97987.13
2022-10-15T06:31:05.804Z,97987.64
2022-10-15T06:33:33.698Z,97998.78
2022-10-15T06:36:02.748Z,97995.05
2022-10-15T06:38:30.072Z,97995.41
2022-10-15T06:40:57.114Z,97997.77
2022-10-15T06:43:24.532Z,98001.86
2022-10-15T06:45:51.755Z,98001.83
2022-10-15T06:48:19.145Z,98007.45
2022-10-15T06:50:46.407Z,98009.80
2022-10-15T06:53:13.619Z,98013.25
2022-10-15T06:55:40.775Z,98005.80
2022-10-15T06:58:07.872Z,98013.77
2022-10-15T07:03:06.107Z,98013.58
2022-10-15T07:05:33.926Z,98006.22
2022-10-15T07:08:01.377Z,98008.12
2022-10-15T07:10:29.552Z,98004.87
2022-10-15T07:13:01.475Z,98004.75
2022-10-15T07:15:29.349Z,98004.66
2022-10-15T07:17:58.699Z,98009.27
2022-10-15T07:20:26.584Z,98006.63
2022-10-15T07:23:01.182Z,98007.17
2022-10-15T07:25:34.014Z,98006.16
2022-10-15T07:28:01.133Z,98004.69
2022-10-15T07:30:28.530Z,98004.37
2022-10-15T07:32:56.931Z,98000.80
2022-10-15T07:35:25.543Z,97995.11
2022-10-15T07:37:52.742Z,97997.69
2022-10-15T07:40:20.231Z,97996.61
2022-10-15T07:42:54.693Z,97994.39
2022-10-15T07:45:22.860Z,97994.89
2022-10-15T07:47:50.660Z,97994.20
2022-10-15T07:50:18.195Z,98003.20
2022-10-15T07:52:47.104Z,98003.73
2022-10-15T07:55:14.227Z,98001.02
2022-10-15T07:57:41.322Z,98001.94
2022-10-15T08:00:09.314Z,98002.21
2022-10-15T08:02:43.376Z,98001.12
2022-10-15T08:05:10.556Z,98012.52
2022-10-15T08:07:37.906Z,98003.95
2022-10-15T08:10:08.529Z,98001.94
2022-10-15T08:12:36.613Z,98001.53
2022-10-15T08:15:04.136Z,97997.16
2022-10-15T08:17:31.803Z,97995.48
2022-10-15T08:19:59.052Z,97997.56
2022-10-15T08:22:26.634Z,97998.25
2022-10-15T08:24:55.885Z,98000.07
2022-10-15T08:27:23.108Z,97995.53
2022-10-15T08:29:52.073Z,97990.88
2022-10-15T08:32:19.506Z,97985.09
2022-10-15T08:34:46.814Z,97992.01
2022-10-15T08:39:41.997Z,97990.20
2022-10-15T08:42:21.553Z,97992.11
2022-10-15T08:44:55.061Z,97985.95
2022-10-15T08:47:35.073Z,97985.39
2022-10-15T08:50:08.435Z,97991.86
2022-10-15T08:52:42.298Z,97990.71
2022-10-15T08:55:14.792Z,97999.48
2022-10-15T08:57:51.503Z,97998.69
2022-10-15T09:00:24.329Z,97994.95
2022-10-15T09:03:04.266Z,97990.17
2022-10-15T09:05:44.270Z,97985.61
2022-10-15T09:08:33.043Z,97975.48
2022-10-15T09:11:06.947Z,97980.50
2022-10-15T09:13:39.842Z,97984.56
2022-10-15T09:16:27.886Z,97981.86
2022-10-15T09:18:55.940Z,97986.66
2022-10-15T09:21:25.376Z,97988.48
2022-10-15T09:23:58.891Z,97979.61
2022-10-15T09:26:46.490Z,97978.69
2022-10-15T09:29:17.557Z,97981.20
2022-10-15T09:32:11.361Z,97977.20
2022-10-15T09:34:42.252Z,97977.98
2022-10-15T09:37:15.586Z,97984.81
2022-10-15T09:39:57.529Z,97983.31
2022-10-15T09:42:30.364Z,97984.84
2022-10-15T09:45:00.175Z,97976.92
2022-10-15T09:47:30.016Z,97984.59
2022-10-15T09:50:01.446Z,97974.88
2022-10-15T09:52:55.308Z,97969.02
2022-10-15T09:55:34.952Z,97970.80
2022-10-15T09:58:08.081Z,97964.83
2022-10-15T10:00:56.921Z,97968.78
2022-10-15T10:03:27.169Z,97974.56
2022-10-15T10:06:09.730Z,97965.20
2022-10-15T10:08:50.894Z,97968.08
2022-10-15T10:11:20.802Z,97969.84
2022-10-15T10:13:51.441Z,97969.33
2022-10-15T10:16:20.427Z,97968.59
2022-10-15T10:19:13.895Z,97962.73
2022-10-15T10:21:42.905Z,97970.73
2022-10-15T10:24:29.819Z,97963.25
2022-10-15T10:27:01.095Z,97965.25
2022-10-15T10:29:34.251Z,97958.14
2022-10-15T10:31:58.728Z,97959.45
2022-10-15T10:34:31.832Z,97959.86
2022-10-15T10:37:04.208Z,97963.05
2022-10-15T10:39:32.850Z,97956.16
2022-10-15T10:42:05.504Z,97957.84
2022-10-15T10:44:43.648Z,97960.19
2022-10-15T10:47:17.019Z,97952.80
2022-10-15T10:49:46.456Z,97954.08
2022-10-15T10:52:36.846Z,97952.73
2022-10-15T10:55:07.613Z,97950.00
2022-10-15T10:57:44.703Z,97949.64
2022-10-15T11:00:15.765Z,97948.09
2022-10-15T11:02:44.846Z,97947.33
2022-10-15T11:05:12.691Z,97945.44
2022-10-15T11:07:52.387Z,97948.98
2022-10-15T11:10:25.934Z,97943.61
2022-10-15T11:13:15.192Z,97941.50
2022-10-15T11:16:10.692Z,97944.11
2022-10-15T11:18:59.476Z,97938.06
2022-10-15T11:21:55.058Z,97937.06
2022-10-15T11:24:49.239Z,97939.03
2022-10-15T11:27:31.507Z,97934.27
2022-10-15T11:30:05.078Z,97937.06
2022-10-15T11:33:06.355Z,97928.71
2022-10-15T11:35:51.587Z,97925.81
2022-10-15T11:38:22.767Z,97915.99
2022-10-15T11:41:08.945Z,97915.25
2022-10-15T11:43:49.060Z,97909.83
2022-10-15T11:46:36.962Z,97904.48
2022-10-15T11:52:21.823Z,97907.73
2022-10-15T11:55:13.796Z,97910.68
2022-10-15T11:57:42.226Z,97902.46
2022-10-15T12:00:18.347Z,97905.20
2022-10-15T12:02:48.329Z,97898.80
2022-10-15T12:05:27.089Z,97903.41
2022-10-15T12:07:55.217Z,97900.45
2022-10-15T12:10:47.377Z,97901.66
2022-10-15T12:13:30.339Z,97897.05
2022-10-15T12:16:01.160Z,97899.55
2022-10-15T12:18:35.092Z,97893.20
2022-10-15T12:21:02.306Z,97891.32
2022-10-15T12:23:40.909Z,97893.42
2022-10-15T12:26:31.941Z,97893.53
2022-10-15T12:29:04.029Z,97893.02
2022-10-15T12:31:46.364Z,97892.95
2022-10-15T12:34:25.577Z,97886.38
2022-10-15T12:37:01.651Z,97885.73
2022-10-15T12:41:59.028Z,97881.51
2022-10-15T12:44:31.062Z,97882.81
2022-10-15T12:46:58.907Z,97878.47
2022-10-15T12:49:30.489Z,97879.38
2022-10-15T12:51:59.706Z,97880.95
2022-10-15T12:54:46.308Z,97873.78
2022-10-15T12:57:35.573Z,97873.84
2022-10-15T13:00:23.051Z,97871.80
2022-10-15T13:02:52.356Z,97869.67
2022-10-15T13:05:30.697Z,97869.67
2022-10-15T13:08:00.258Z,97868.83
2022-10-15T13:10:36.928Z,97866.67
2022-10-15T13:13:07.731Z,97862.30
2022-10-15T13:15:34.885Z,97863.08
2022-10-15T13:18:13.271Z,97863.70
2022-10-15T13:20:42.858Z,97866.23
2022-10-15T13:23:31.012Z,97866.93
2022-10-15T13:26:15.618Z,97855.02
2022-10-15T13:28:43.502Z,97861.96
2022-10-15T13:31:31.214Z,97863.12
2022-10-15T13:34:04.917Z,97862.40
2022-10-15T13:36:33.846Z,97863.77
2022-10-15T13:39:06.490Z,97862.40
2022-10-15T13:41:36.562Z,97860.06
2022-10-15T13:44:04.481Z,97857.77
2022-10-15T13:46:34.135Z,97855.44
2022-10-15T13:49:04.201Z,97857.83
2022-10-15T13:51:34.904Z,97853.86
2022-10-15T13:54:02.671Z,97849.02
2022-10-15T13:56:31.722Z,97854.38
2022-10-15T13:59:02.287Z,97859.37
2022-10-15T14:01:31.171Z,97856.89
2022-10-15T14:04:00.118Z,97855.97
2022-10-15T14:06:32.988Z,97852.95
2022-10-15T14:09:03.675Z,97856.31
2022-10-15T14:11:32.779Z,97858.53
2022-10-15T14:13:59.875Z,97858.97
2022-10-15T14:16:36.719Z,97857.48
2022-10-15T14:19:09.541Z,97857.77
2022-10-15T14:21:40.549Z,97855.75
2022-10-15T14:24:14.350Z,97855.58
2022-10-15T14:26:42.606Z,97854.06
2022-10-15T14:29:22.531Z,97854.11
2022-10-15T14:31:49.825Z,97849.01
2022-10-15T14:34:38.331Z,97854.06
2022-10-15T14:37:28.924Z,97849.36
2022-10-15T14:40:11.853Z,97852.54
2022-10-15T14:42:44.839Z,97852.48
2022-10-15T14:45:22.093Z,97849.24
2022-10-15T14:47:52.942Z,97852.11
2022-10-15T14:50:21.532Z,97851.47
2022-10-15T14:52:51.385Z,97852.20
2022-10-15T14:55:32.724Z,97844.98
2022-10-15T14:58:08.083Z,97859.02
2022-10-15T15:00:43.217Z,97860.06
2022-10-15T15:03:17.079Z,97854.45
2022-10-15T15:05:53.247Z,97854.77
2022-10-15T15:08:21.444Z,97850.77
2022-10-15T15:10:50.317Z,97851.43
2022-10-15T15:13:22.913Z,97855.14
2022-10-15T15:15:49.997Z,97851.72
2022-10-15T15:18:17.486Z,97856.30
2022-10-15T15:20:47.609Z,97852.03
2022-10-15T15:23:21.386Z,97858.29
2022-10-15T15:25:48.970Z,97861.38
2022-10-15T15:28:20.007Z,97864.87
2022-10-15T15:30:56.018Z,97867.30
2022-10-15T15:33:23.332Z,97869.27
2022-10-15T15:35:53.585Z,97877.36
2022-10-15T15:38:23.199Z,97879.30
2022-10-15T15:40:50.609Z,97879.87
2022-10-15T15:43:18.857Z,97888.19
2022-10-15T15:45:46.983Z,97884.63
2022-10-15T15:48:14.092Z,97888.67
2022-10-15T15:50:41.358Z,97897.21
2022-10-15T15:53:08.848Z,97899.44
2022-10-15T15:55:36.111Z,97905.94
2022-10-15T15:58:03.360Z,97913.68
2022-10-15T16:00:30.426Z,97919.16
2022-10-15T16:02:58.218Z,97918.05
2022-10-15T16:05:25.573Z,97929.76
2022-10-15T16:07:52.694Z,97928.49
2022-10-15T16:10:19.956Z,97918.25
2022-10-15T16:12:47.009Z,97922.08
2022-10-15T16:15:15.350Z,97930.23
2022-10-15T16:17:43.322Z,97934.28
2022-10-15T16:20:11.166Z,97933.36
2022-10-15T16:22:38.581Z,97933.20
2022-10-15T16:25:06.796Z,97933.06
2022-10-15T16:27:34.187Z,97933.94
2022-10-15T16:30:03.392Z,97937.19
2022-10-15T16:32:30.836Z,97932.95
2022-10-15T16:34:58.097Z,97932.46
2022-10-15T16:37:26.319Z,97936.61
2022-10-15T16:39:53.898Z,97932.91
2022-10-15T16:42:21.138Z,97942.77
2022-10-15T16:44:48.373Z,97948.42
2022-10-15T16:47:15.600Z,97948.59
2022-10-15T16:49:42.752Z,97958.87
2022-10-15T16:52:10.371Z,97955.19
2022-10-15T16:54:37.878Z,97958.25
2022-10-15T16:57:05.269Z,97962.75
2022-10-15T16:59:32.451Z,97964.98
2022-10-15T17:02:00.800Z,97963.73
2022-10-15T17:04:28.159Z,97963.59
2022-10-15T17:06:55.360Z,97963.76
2022-10-15T17:09:23.127Z,97963.95
2022-10-15T17:11:50.290Z,97975.81
2022-10-15T17:14:18.100Z,97976.88
2022-10-15T17:16:50.651Z,97980.80
2022-10-15T17:19:21.068Z,97990.09
2022-10-15T17:21:48.084Z,97990.42
2022-10-15T17:24:16.696Z,97988.01
2022-10-15T17:26:45.074Z,97992.98
2022-10-15T17:29:16.863Z,97996.34
2022-10-15T17:31:43.932Z,97999.30
2022-10-15T17:34:11.442Z,97999.22
2022-10-15T17:36:43.353Z,98008.16
2022-10-15T17:39:20.023Z,98004.09
2022-10-15T17:41:47.200Z,98004.80
2022-10-15T17:44:14.385Z,98003.91
2022-10-15T17:46:41.879Z,98011.19
2022-10-15T17:49:10.636Z,98006.69
2022-10-15T17:51:39.422Z,98008.99
2022-10-15T17:54:06.557Z,98012.09
2022-10-15T17:56:35.938Z,98009.97
2022-10-15T17:59:05.609Z,98006.67
2022-10-15T18:01:57.206Z,98010.08
2022-10-15T18:04:10.774Z,98000.56
2022-10-15T18:06:38.020Z,98007.13
2022-10-15T18:09:05.178Z,98006.91
2022-10-15T18:11:34.097Z,98008.72
2022-10-15T18:14:01.567Z,98008.98
2022-10-15T18:16:28.808Z,98015.28
2022-10-15T18:18:56.143Z,98018.66
2022-10-15T18:21:25.062Z,98017.71
2022-10-15T18:23:52.435Z,98018.55
2022-10-15T18:26:20.983Z,98018.28
2022-10-15T18:28:50.544Z,98012.05
2022-10-15T18:31:18.285Z,98023.91
2022-10-15T18:33:48.388Z,98025.63
2022-10-15T18:36:18.450Z,98023.16
2022-10-15T18:38:45.661Z,98025.34
2022-10-15T18:41:18.511Z,98028.53
2022-10-15T18:43:54.691Z,98033.12
2022-10-15T18:46:22.163Z,98036.88
2022-10-15T18:48:49.454Z,98035.83
2022-10-15T18:51:17.632Z,98042.63
2022-10-15T18:53:44.938Z,98047.83
2022-10-15T18:56:13.308Z,98042.47
2022-10-15T18:58:44.000Z,98052.98
2022-10-15T19:01:32.406Z,98062.38
2022-10-15T19:04:02.616Z,98062.28
2022-10-15T19:06:32.176Z,98066.67
2022-10-15T19:09:00.427Z,98066.03
2022-10-15T19:11:29.723Z,98066.98
2022-10-15T19:14:00.016Z,98070.09
2022-10-15T19:16:28.146Z,98073.98
2022-10-15T19:18:57.824Z,98073.02
2022-10-15T19:21:24.926Z,98071.49
2022-10-15T19:23:52.048Z,98072.91
2022-10-15T19:26:19.421Z,98077.59
2022-10-15T19:28:47.392Z,98083.91
2022-10-15T19:31:23.429Z,98078.48
2022-10-15T19:33:50.767Z,98076.62
2022-10-15T19:36:22.792Z,98075.03
2022-10-15T19:38:50.343Z,98076.95
2022-10-15T19:41:18.502Z,98071.86
2022-10-15T19:43:45.891Z,98077.02
2022-10-15T19:46:13.468Z,98078.45
2022-10-15T19:48:41.832Z,98081.96
2022-10-15T19:51:09.000Z,98083.88
2022-10-15T19:53:36.094Z,98081.17
2022-10-15T19:56:08.268Z,98086.77
2022-10-15T19:58:35.874Z,98090.27
2022-10-15T20:01:05.350Z,98089.71
2022-10-15T20:03:33.389Z,98100.32
2022-10-15T20:06:07.036Z,98101.91
2022-10-15T20:08:34.638Z,98094.98
2022-10-15T20:11:06.940Z,98103.62
2022-10-15T20:13:34.706Z,98104.47
2022-10-15T20:16:04.971Z,98110.13
2022-10-15T20:18:32.382Z,98116.67
2022-10-15T20:20:59.768Z,98115.70
2022-10-15T20:23:28.099Z,98112.91
2022-10-15T20:25:55.444Z,98110.07
2022-10-15T20:28:22.443Z,98116.38
2022-10-15T20:30:51.624Z,98119.14
2022-10-15T20:33:18.918Z,98121.67
2022-10-15T20:35:47.952Z,98116.87
2022-10-15T20:38:15.353Z,98120.52
2022-10-15T20:40:42.630Z,98123.31
2022-10-15T20:43:10.002Z,98125.75
2022-10-15T20:45:42.439Z,98124.40
2022-10-15T20:48:13.331Z,98122.80
2022-10-15T20:50:41.534Z,98129.34
2022-10-15T20:53:08.853Z,98135.14
2022-10-15T20:55:35.930Z,98137.48
2022-10-15T20:58:03.683Z,98133.05
2022-10-15T21:00:30.966Z,98135.41
2022-10-15T21:02:58.254Z,98142.00
2022-10-15T21:05:25.505Z,98138.86
2022-10-15T21:07:52.775Z,98141.94
2022-10-15T21:10:19.921Z,98138.48
2022-10-15T21:12:46.993Z,98136.14
2022-10-15T21:15:14.144Z,98136.75
2022-10-15T21:17:41.476Z,98141.69
2022-10-15T21:20:09.063Z,98145.84
2022-10-15T21:22:36.285Z,98147.33
2022-10-15T21:25:05.057Z,98145.49
2022-10-15T21:27:32.360Z,98154.22
2022-10-15T21:29:59.858Z,98155.69
2022-10-15T21:32:27.377Z,98152.23
2022-10-15T21:34:54.477Z,98156.94
2022-10-15T21:37:21.578Z,98158.09
2022-10-15T21:39:48.782Z,98161.41
2022-10-15T21:42:15.878Z,98164.95
2022-10-15T21:44:43.226Z,98164.83
2022-10-15T21:47:14.359Z,98170.84
2022-10-15T21:49:41.106Z,98175.25
2022-10-15T21:52:08.479Z,98173.14
2022-10-15T21:54:35.527Z,98173.50
2022-10-15T21:57:02.998Z,98173.86
2022-10-15T21:59:30.300Z,98176.91
2022-10-15T22:01:57.689Z,98182.08
2022-10-15T22:04:24.965Z,98179.37
2022-10-15T22:06:52.089Z,98180.48
2022-10-15T22:09:19.373Z,98181.33
2022-10-15T22:11:46.532Z,98177.78
2022-10-15T22:14:13.880Z,98176.67
2022-10-15T22:16:42.056Z,98180.69
2022-10-15T22:19:12.913Z,98181.48
2022-10-15T22:21:40.064Z,98179.82
2022-10-15T22:24:12.188Z,98187.58
2022-10-15T22:26:41.979Z,98183.73
2022-10-15T22:29:12.800Z,98193.08
2022-10-15T22:31:40.100Z,98196.78
2022-10-15T22:34:07.541Z,98201.91
2022-10-15T22:36:34.639Z,98202.11
2022-10-15T22:39:07.034Z,98207.21
2022-10-15T22:41:39.224Z,98212.83
2022-10-15T22:44:07.271Z,98210.24
2022-10-15T22:46:36.610Z,98217.20
2022-10-15T22:49:04.852Z,98220.78
2022-10-15T22:51:32.032Z,98220.42
2022-10-15T22:53:59.842Z,98219.31
2022-10-15T22:56:28.035Z,98214.21
2022-10-15T22:58:56.708Z,98224.09
2022-10-15T23:01:29.496Z,98220.14
2022-10-15T23:04:00.953Z,98220.72
2022-10-15T23:06:28.754Z,98227.59
2022-10-15T23:08:57.572Z,98221.61
2022-10-15T23:11:27.552Z,98228.17
2022-10-15T23:13:57.541Z,98229.88
2022-10-15T23:16:28.619Z,98226.17
2022-10-15T23:18:59.519Z,98231.07
2022-10-15T23:21:29.527Z,98235.20
2022-10-15T23:23:56.993Z,98226.02
2022-10-15T23:26:24.218Z,98228.31
2022-10-15T23:28:56.006Z,98230.11
2022-10-15T23:31:32.029Z,98230.26
2022-10-15T23:34:00.295Z,98233.27
2022-10-15T23:36:28.925Z,98238.44
2022-10-15T23:38:58.540Z,98233.86
2022-10-15T23:41:27.506Z,98233.96
2022-10-15T23:43:55.239Z,98230.73
2022-10-15T23:46:22.923Z,98227.55
2022-10-15T23:48:50.183Z,98234.13
2022-10-15T23:51:20.450Z,98234.78
2022-10-15T23:53:47.836Z,98236.51
2022-10-15T23:56:15.535Z,98232.61
2022-10-15T23:58:42.695Z,98231.30
